sensor_id;sensor_type;location;lat;lon;timestamp;P1;durP1;ratioP1;P2;durP2;ratioP2
32451;SDS011;45528;52.102;5.242;2023-02-20T00:01:10;21.8;;;11.6;;
32451;SDS011;45528;52.102;5.242;2023-02-20T00:04:25;21.3;;;12.4;;
32451;SDS011;45528;52.102;5.242;2023-02-20T00:06:01;20.11;;;12.0;;
32451;SDS011;45528;52.102;5.242;2023-02-20T00:07:38;24.4;;;11.9;;
32451;SDS011;45528;52.102;5.242;2023-02-20T00:09:15;23.0;;;12.3;;
32451;SDS011;45528;52.102;5.242;2023-02-20T00:12:29;22.5;;;12.0;;
32451;SDS011;45528;52.102;5.242;2023-02-20T00:14:05;24.5;;;12.3;;
32451;SDS011;45528;52.102;5.242;2023-02-20T00:15:42;25.8;;;13.0;;
32451;SDS011;45528;52.102;5.242;2023-02-20T00:18:56;21.3;;;12.0;;
32451;SDS011;45528;52.102;5.242;2023-02-20T00:20:35;27.0;;;12.5;;
32451;SDS011;45528;52.102;5.242;2023-02-20T00:22:11;22.5;;;11.4;;
32451;SDS011;45528;52.102;5.242;2023-02-20T00:23:47;22.6;;;12.0;;
32451;SDS011;45528;52.102;5.242;2023-02-20T00:27:02;23.2;;;12.2;;
32451;SDS011;45528;52.102;5.242;2023-02-20T00:28:38;21.3;;;11.2;;
32451;SDS011;45528;52.102;5.242;2023-02-20T00:30:17;19.2;;;11.1;;
32451;SDS011;45528;52.102;5.242;2023-02-20T00:33:35;22.6;;;12.4;;
32451;SDS011;45528;52.102;5.242;2023-02-20T00:35:12;19.41;;;11.6;;
32451;SDS011;45528;52.102;5.242;2023-02-20T00:36:49;23.1;;;12.0;;
32451;SDS011;45528;52.102;5.242;2023-02-20T00:38:26;20.7;;;11.8;;
32451;SDS011;45528;52.102;5.242;2023-02-20T00:41:42;23.1;;;13.1;;
32451;SDS011;45528;52.102;5.242;2023-02-20T00:43:19;20.7;;;11.8;;
32451;SDS011;45528;52.102;5.242;2023-02-20T00:44:56;21.4;;;11.9;;
32451;SDS011;45528;52.102;5.242;2023-02-20T00:48:10;22.8;;;12.4;;
32451;SDS011;45528;52.102;5.242;2023-02-20T00:49:47;24.1;;;12.5;;
32451;SDS011;45528;52.102;5.242;2023-02-20T00:51:24;20.7;;;11.9;;
32451;SDS011;45528;52.102;5.242;2023-02-20T00:53:01;22.8;;;12.7;;
32451;SDS011;45528;52.102;5.242;2023-02-20T00:56:15;19.5;;;11.3;;
32451;SDS011;45528;52.102;5.242;2023-02-20T00:57:51;19.61;;;12.0;;
32451;SDS011;45528;52.102;5.242;2023-02-20T00:59:28;22.0;;;11.9;;
32451;SDS011;45528;52.102;5.242;2023-02-20T01:02:41;23.9;;;11.7;;
32451;SDS011;45528;52.102;5.242;2023-02-20T01:04:18;23.9;;;11.7;;
32451;SDS011;45528;52.102;5.242;2023-02-20T01:05:55;20.6;;;11.4;;
32451;SDS011;45528;52.102;5.242;2023-02-20T01:09:09;23.9;;;11.8;;
32451;SDS011;45528;52.102;5.242;2023-02-20T01:10:47;20.11;;;12.0;;
32451;SDS011;45528;52.102;5.242;2023-02-20T01:12:26;20.9;;;11.3;;
32451;SDS011;45528;52.102;5.242;2023-02-20T01:14:02;19.7;;;11.1;;
32451;SDS011;45528;52.102;5.242;2023-02-20T01:17:15;21.2;;;12.0;;
32451;SDS011;45528;52.102;5.242;2023-02-20T01:18:51;20.8;;;12.6;;
32451;SDS011;45528;52.102;5.242;2023-02-20T01:20:28;22.3;;;12.5;;
32451;SDS011;45528;52.102;5.242;2023-02-20T01:23:44;21.0;;;12.5;;
32451;SDS011;45528;52.102;5.242;2023-02-20T01:25:20;25.2;;;13.5;;
32451;SDS011;45528;52.102;5.242;2023-02-20T01:26:57;25.2;;;13.1;;
32451;SDS011;45528;52.102;5.242;2023-02-20T01:28:34;21.4;;;12.4;;
32451;SDS011;45528;52.102;5.242;2023-02-20T01:31:49;27.2;;;13.2;;
32451;SDS011;45528;52.102;5.242;2023-02-20T01:33:27;24.2;;;13.4;;
32451;SDS011;45528;52.102;5.242;2023-02-20T01:35:05;26.4;;;13.1;;
32451;SDS011;45528;52.102;5.242;2023-02-20T01:38:24;23.6;;;13.0;;
32451;SDS011;45528;52.102;5.242;2023-02-20T01:40:01;22.6;;;13.1;;
32451;SDS011;45528;52.102;5.242;2023-02-20T01:41:39;25.5;;;13.8;;
32451;SDS011;45528;52.102;5.242;2023-02-20T01:43:15;23.9;;;12.8;;
32451;SDS011;45528;52.102;5.242;2023-02-20T01:46:46;27.3;;;13.5;;
32451;SDS011;45528;52.102;5.242;2023-02-20T01:48:25;25.5;;;13.3;;
32451;SDS011;45528;52.102;5.242;2023-02-20T01:50:02;25.0;;;13.7;;
32451;SDS011;45528;52.102;5.242;2023-02-20T01:51:43;25.4;;;14.3;;
32451;SDS011;45528;52.102;5.242;2023-02-20T01:55:07;28.6;;;14.8;;
32451;SDS011;45528;52.102;5.242;2023-02-20T01:56:48;27.6;;;14.8;;
32451;SDS011;45528;52.102;5.242;2023-02-20T01:58:28;27.2;;;15.6;;
32451;SDS011;45528;52.102;5.242;2023-02-20T02:00:11;31.2;;;16.2;;
32451;SDS011;45528;52.102;5.242;2023-02-20T02:03:31;34.0;;;17.0;;
32451;SDS011;45528;52.102;5.242;2023-02-20T02:05:10;34.81;;;17.61;;
32451;SDS011;45528;52.102;5.242;2023-02-20T02:06:49;33.6;;;17.61;;
32451;SDS011;45528;52.102;5.242;2023-02-20T02:08:29;31.6;;;18.8;;
32451;SDS011;45528;52.102;5.242;2023-02-20T02:11:49;34.81;;;19.3;;
32451;SDS011;45528;52.102;5.242;2023-02-20T02:13:26;39.81;;;19.5;;
32451;SDS011;45528;52.102;5.242;2023-02-20T02:15:11;33.21;;;18.8;;
32451;SDS011;45528;52.102;5.242;2023-02-20T02:16:52;37.81;;;18.41;;
32451;SDS011;45528;52.102;5.242;2023-02-20T02:21:42;36.0;;;19.8;;
32451;SDS011;45528;52.102;5.242;2023-02-20T02:23:51;36.6;;;20.0;;
32451;SDS011;45528;52.102;5.242;2023-02-20T02:27:14;41.0;;;20.6;;
32451;SDS011;45528;52.102;5.242;2023-02-20T02:30:19;40.31;;;22.3;;
32451;SDS011;45528;52.102;5.242;2023-02-20T02:31:21;40.31;;;22.3;;
32451;SDS011;45528;52.102;5.242;2023-02-20T02:32:19;46.0;;;22.4;;
32451;SDS011;45528;52.102;5.242;2023-02-20T02:33:19;46.0;;;22.4;;
32451;SDS011;45528;52.102;5.242;2023-02-20T02:35:31;40.9;;;23.0;;
32451;SDS011;45528;52.102;5.242;2023-02-20T02:36:50;44.5;;;24.5;;
32451;SDS011;45528;52.102;5.242;2023-02-20T02:38:32;45.6;;;24.5;;
32451;SDS011;45528;52.102;5.242;2023-02-20T02:40:23;39.81;;;23.5;;
32451;SDS011;45528;52.102;5.242;2023-02-20T02:42:07;44.3;;;23.9;;
32451;SDS011;45528;52.102;5.242;2023-02-20T02:45:37;51.7;;;25.2;;
32451;SDS011;45528;52.102;5.242;2023-02-20T02:47:21;46.3;;;26.1;;
32451;SDS011;45528;52.102;5.242;2023-02-20T02:49:04;49.6;;;25.7;;
32451;SDS011;45528;52.102;5.242;2023-02-20T02:50:47;50.3;;;27.1;;
32451;SDS011;45528;52.102;5.242;2023-02-20T02:53:01;48.5;;;28.1;;
32451;SDS011;45528;52.102;5.242;2023-02-20T02:54:38;51.1;;;28.0;;
32451;SDS011;45528;52.102;5.242;2023-02-20T02:58:08;53.8;;;27.7;;
32451;SDS011;45528;52.102;5.242;2023-02-20T02:59:49;58.4;;;29.7;;
32451;SDS011;45528;52.102;5.242;2023-02-20T03:01:30;56.8;;;29.3;;
32451;SDS011;45528;52.102;5.242;2023-02-20T03:03:12;61.0;;;29.7;;
32451;SDS011;45528;52.102;5.242;2023-02-20T03:04:55;58.6;;;29.4;;
32451;SDS011;45528;52.102;5.242;2023-02-20T03:08:32;55.5;;;29.6;;
32451;SDS011;45528;52.102;5.242;2023-02-20T03:10:19;58.6;;;30.2;;
32451;SDS011;45528;52.102;5.242;2023-02-20T03:11:59;53.4;;;29.9;;
32451;SDS011;45528;52.102;5.242;2023-02-20T03:15:59;56.5;;;30.0;;
32451;SDS011;45528;52.102;5.242;2023-02-20T03:17:37;54.7;;;30.0;;
32451;SDS011;45528;52.102;5.242;2023-02-20T03:21:08;51.4;;;29.5;;
32451;SDS011;45528;52.102;5.242;2023-02-20T03:22:52;55.3;;;30.3;;
32451;SDS011;45528;52.102;5.242;2023-02-20T03:24:55;55.7;;;29.2;;
32451;SDS011;45528;52.102;5.242;2023-02-20T03:26:35;47.3;;;28.1;;
32451;SDS011;45528;52.102;5.242;2023-02-20T03:28:16;54.4;;;29.4;;
32451;SDS011;45528;52.102;5.242;2023-02-20T03:29:57;57.3;;;30.1;;
32451;SDS011;45528;52.102;5.242;2023-02-20T03:44:24;49.9;;;27.9;;
32451;SDS011;45528;52.102;5.242;2023-02-20T03:46:04;52.2;;;28.3;;
32451;SDS011;45528;52.102;5.242;2023-02-20T03:47:46;48.1;;;27.4;;
32451;SDS011;45528;52.102;5.242;2023-02-20T03:49:28;51.3;;;28.6;;
32451;SDS011;45528;52.102;5.242;2023-02-20T03:52:52;55.0;;;28.4;;
32451;SDS011;45528;52.102;5.242;2023-02-20T03:54:30;51.6;;;28.5;;
32451;SDS011;45528;52.102;5.242;2023-02-20T03:56:10;52.1;;;28.0;;
32451;SDS011;45528;52.102;5.242;2023-02-20T03:57:54;54.6;;;27.5;;
32451;SDS011;45528;52.102;5.242;2023-02-20T03:59:37;55.8;;;29.4;;
32451;SDS011;45528;52.102;5.242;2023-02-20T04:02:59;52.0;;;29.5;;
32451;SDS011;45528;52.102;5.242;2023-02-20T04:04:43;49.3;;;29.0;;
32451;SDS011;45528;52.102;5.242;2023-02-20T04:06:24;53.9;;;28.5;;
32451;SDS011;45528;52.102;5.242;2023-02-20T04:08:07;57.6;;;30.9;;
32451;SDS011;45528;52.102;5.242;2023-02-20T04:09:48;56.5;;;30.5;;
32451;SDS011;45528;52.102;5.242;2023-02-20T04:13:08;58.7;;;30.8;;
32451;SDS011;45528;52.102;5.242;2023-02-20T04:14:48;59.7;;;30.2;;
32451;SDS011;45528;52.102;5.242;2023-02-20T04:16:29;54.7;;;28.7;;
32451;SDS011;45528;52.102;5.242;2023-02-20T04:18:13;57.1;;;30.0;;
32451;SDS011;45528;52.102;5.242;2023-02-20T04:21:31;60.3;;;31.7;;
32451;SDS011;45528;52.102;5.242;2023-02-20T04:23:14;55.2;;;30.3;;
32451;SDS011;45528;52.102;5.242;2023-02-20T04:24:56;56.6;;;29.7;;
32451;SDS011;45528;52.102;5.242;2023-02-20T04:26:36;59.5;;;30.4;;
32451;SDS011;45528;52.102;5.242;2023-02-20T04:29:51;58.0;;;31.5;;
32451;SDS011;45528;52.102;5.242;2023-02-20T04:31:28;57.9;;;29.4;;
32451;SDS011;45528;52.102;5.242;2023-02-20T04:33:05;62.3;;;31.2;;
32451;SDS011;45528;52.102;5.242;2023-02-20T04:36:22;58.1;;;30.7;;
32451;SDS011;45528;52.102;5.242;2023-02-20T04:38:00;57.6;;;31.7;;
32451;SDS011;45528;52.102;5.242;2023-02-20T04:39:36;58.8;;;32.0;;
32451;SDS011;45528;52.102;5.242;2023-02-20T04:41:13;60.1;;;30.6;;
32451;SDS011;45528;52.102;5.242;2023-02-20T04:44:31;62.4;;;32.3;;
32451;SDS011;45528;52.102;5.242;2023-02-20T04:46:09;57.9;;;32.1;;
32451;SDS011;45528;52.102;5.242;2023-02-20T04:47:46;62.8;;;32.0;;
32451;SDS011;45528;52.102;5.242;2023-02-20T04:50:59;59.7;;;32.1;;
32451;SDS011;45528;52.102;5.242;2023-02-20T04:52:37;65.6;;;33.0;;
32451;SDS011;45528;52.102;5.242;2023-02-20T04:54:15;64.8;;;32.9;;
32451;SDS011;45528;52.102;5.242;2023-02-20T04:55:51;59.8;;;32.1;;
32451;SDS011;45528;52.102;5.242;2023-02-20T04:59:04;63.0;;;32.71;;
32451;SDS011;45528;52.102;5.242;2023-02-20T05:00:41;58.6;;;31.4;;
32451;SDS011;45528;52.102;5.242;2023-02-20T05:02:19;55.5;;;31.9;;
32451;SDS011;45528;52.102;5.242;2023-02-20T05:05:34;59.0;;;32.1;;
32451;SDS011;45528;52.102;5.242;2023-02-20T05:07:11;60.1;;;30.7;;
32451;SDS011;45528;52.102;5.242;2023-02-20T05:08:47;59.7;;;30.4;;
32451;SDS011;45528;52.102;5.242;2023-02-20T05:10:25;52.3;;;30.0;;
32451;SDS011;45528;52.102;5.242;2023-02-20T05:13:40;57.1;;;29.8;;
32451;SDS011;45528;52.102;5.242;2023-02-20T05:15:16;54.8;;;29.0;;
32451;SDS011;45528;52.102;5.242;2023-02-20T05:16:54;55.1;;;28.2;;
32451;SDS011;45528;52.102;5.242;2023-02-20T05:20:09;52.6;;;28.1;;
32451;SDS011;45528;52.102;5.242;2023-02-20T05:22:23;48.2;;;26.7;;
32451;SDS011;45528;52.102;5.242;2023-02-20T05:23:59;48.9;;;26.7;;
32451;SDS011;45528;52.102;5.242;2023-02-20T05:25:36;52.4;;;26.7;;
32451;SDS011;45528;52.102;5.242;2023-02-20T05:27:14;51.9;;;26.5;;
32451;SDS011;45528;52.102;5.242;2023-02-20T05:30:30;51.9;;;26.6;;
32451;SDS011;45528;52.102;5.242;2023-02-20T05:32:07;49.8;;;25.3;;
32451;SDS011;45528;52.102;5.242;2023-02-20T05:33:43;48.6;;;24.8;;
32451;SDS011;45528;52.102;5.242;2023-02-20T05:36:57;47.2;;;23.5;;
32451;SDS011;45528;52.102;5.242;2023-02-20T05:38:34;45.9;;;22.5;;
32451;SDS011;45528;52.102;5.242;2023-02-20T05:40:11;43.4;;;22.1;;
32451;SDS011;45528;52.102;5.242;2023-02-20T05:41:48;41.6;;;21.9;;
32451;SDS011;45528;52.102;5.242;2023-02-20T05:45:01;42.5;;;20.9;;
32451;SDS011;45528;52.102;5.242;2023-02-20T05:46:40;42.6;;;20.6;;
32451;SDS011;45528;52.102;5.242;2023-02-20T05:48:17;38.81;;;20.2;;
32451;SDS011;45528;52.102;5.242;2023-02-20T05:51:31;34.6;;;18.61;;
32451;SDS011;45528;52.102;5.242;2023-02-20T05:53:08;40.31;;;18.91;;
32451;SDS011;45528;52.102;5.242;2023-02-20T05:54:44;35.71;;;18.0;;
32451;SDS011;45528;52.102;5.242;2023-02-20T05:57:58;38.71;;;17.8;;
32451;SDS011;45528;52.102;5.242;2023-02-20T05:59:35;40.31;;;17.8;;
32451;SDS011;45528;52.102;5.242;2023-02-20T06:01:15;33.0;;;16.11;;
32451;SDS011;45528;52.102;5.242;2023-02-20T06:02:53;35.9;;;17.2;;
32451;SDS011;45528;52.102;5.242;2023-02-20T06:06:06;34.21;;;16.3;;
32451;SDS011;45528;52.102;5.242;2023-02-20T06:07:42;31.6;;;15.4;;
32451;SDS011;45528;52.102;5.242;2023-02-20T06:09:19;34.0;;;16.11;;
32451;SDS011;45528;52.102;5.242;2023-02-20T06:12:33;36.0;;;15.6;;
32451;SDS011;45528;52.102;5.242;2023-02-20T06:14:10;41.3;;;16.8;;
32451;SDS011;45528;52.102;5.242;2023-02-20T06:15:46;36.4;;;15.9;;
32451;SDS011;45528;52.102;5.242;2023-02-20T06:17:24;38.6;;;16.3;;
32451;SDS011;45528;52.102;5.242;2023-02-20T06:20:37;36.6;;;15.6;;
32451;SDS011;45528;52.102;5.242;2023-02-20T06:22:15;32.8;;;15.9;;
32451;SDS011;45528;52.102;5.242;2023-02-20T06:23:51;32.9;;;15.1;;
32451;SDS011;45528;52.102;5.242;2023-02-20T06:27:07;34.0;;;14.8;;
32451;SDS011;45528;52.102;5.242;2023-02-20T06:28:43;32.21;;;14.6;;
32451;SDS011;45528;52.102;5.242;2023-02-20T06:30:20;37.71;;;15.0;;
32451;SDS011;45528;52.102;5.242;2023-02-20T06:33:33;26.9;;;13.9;;
32451;SDS011;45528;52.102;5.242;2023-02-20T06:35:11;32.4;;;13.6;;
32451;SDS011;45528;52.102;5.242;2023-02-20T06:36:49;35.0;;;14.1;;
32451;SDS011;45528;52.102;5.242;2023-02-20T06:38:26;30.2;;;13.8;;
32451;SDS011;45528;52.102;5.242;2023-02-20T06:41:41;31.2;;;13.3;;
32451;SDS011;45528;52.102;5.242;2023-02-20T06:43:19;34.0;;;14.2;;
32451;SDS011;45528;52.102;5.242;2023-02-20T06:44:56;39.31;;;14.8;;
32451;SDS011;45528;52.102;5.242;2023-02-20T06:48:09;35.6;;;14.7;;
32451;SDS011;45528;52.102;5.242;2023-02-20T06:49:48;31.8;;;14.5;;
32451;SDS011;45528;52.102;5.242;2023-02-20T06:51:24;36.5;;;14.9;;
32451;SDS011;45528;52.102;5.242;2023-02-20T06:53:04;37.71;;;14.3;;
32451;SDS011;45528;52.102;5.242;2023-02-20T06:56:19;30.7;;;13.9;;
32451;SDS011;45528;52.102;5.242;2023-02-20T06:57:59;28.8;;;13.0;;
32451;SDS011;45528;52.102;5.242;2023-02-20T06:59:40;27.6;;;12.8;;
32451;SDS011;45528;52.102;5.242;2023-02-20T07:01:20;31.1;;;13.3;;
32451;SDS011;45528;52.102;5.242;2023-02-20T07:04:36;33.71;;;13.4;;
32451;SDS011;45528;52.102;5.242;2023-02-20T07:06:13;30.4;;;12.9;;
32451;SDS011;45528;52.102;5.242;2023-02-20T07:07:50;27.5;;;11.9;;
32451;SDS011;45528;52.102;5.242;2023-02-20T07:11:05;29.9;;;12.1;;
32451;SDS011;45528;52.102;5.242;2023-02-20T07:12:42;26.1;;;10.8;;
32451;SDS011;45528;52.102;5.242;2023-02-20T07:14:18;31.6;;;11.5;;
32451;SDS011;45528;52.102;5.242;2023-02-20T07:15:55;25.1;;;11.0;;
32451;SDS011;45528;52.102;5.242;2023-02-20T07:19:10;36.1;;;11.3;;
32451;SDS011;45528;52.102;5.242;2023-02-20T07:20:47;25.2;;;10.0;;
32451;SDS011;45528;52.102;5.242;2023-02-20T07:22:26;22.4;;;10.6;;
32451;SDS011;45528;52.102;5.242;2023-02-20T07:25:42;26.6;;;10.8;;
32451;SDS011;45528;52.102;5.242;2023-02-20T07:27:19;27.5;;;11.2;;
32451;SDS011;45528;52.102;5.242;2023-02-20T07:28:57;30.2;;;10.9;;
32451;SDS011;45528;52.102;5.242;2023-02-20T07:30:34;28.8;;;10.9;;
32451;SDS011;45528;52.102;5.242;2023-02-20T07:33:48;26.8;;;10.4;;
32451;SDS011;45528;52.102;5.242;2023-02-20T07:35:26;26.3;;;10.7;;
32451;SDS011;45528;52.102;5.242;2023-02-20T07:37:02;26.9;;;11.2;;
32451;SDS011;45528;52.102;5.242;2023-02-20T07:40:16;30.4;;;11.8;;
32451;SDS011;45528;52.102;5.242;2023-02-20T07:41:54;27.0;;;11.7;;
32451;SDS011;45528;52.102;5.242;2023-02-20T07:43:31;26.2;;;10.8;;
32451;SDS011;45528;52.102;5.242;2023-02-20T07:46:46;27.4;;;11.0;;
32451;SDS011;45528;52.102;5.242;2023-02-20T07:48:22;24.6;;;11.2;;
32451;SDS011;45528;52.102;5.242;2023-02-20T07:49:59;27.0;;;11.6;;
32451;SDS011;45528;52.102;5.242;2023-02-20T07:51:35;28.6;;;11.7;;
32451;SDS011;45528;52.102;5.242;2023-02-20T07:54:51;27.7;;;11.7;;
32451;SDS011;45528;52.102;5.242;2023-02-20T07:56:27;30.2;;;11.5;;
32451;SDS011;45528;52.102;5.242;2023-02-20T07:58:04;24.4;;;10.1;;
32451;SDS011;45528;52.102;5.242;2023-02-20T08:01:17;27.9;;;10.9;;
32451;SDS011;45528;52.102;5.242;2023-02-20T08:02:54;30.8;;;11.2;;
32451;SDS011;45528;52.102;5.242;2023-02-20T08:04:31;26.5;;;10.9;;
32451;SDS011;45528;52.102;5.242;2023-02-20T08:06:07;24.9;;;10.9;;
32451;SDS011;45528;52.102;5.242;2023-02-20T08:09:20;25.3;;;10.6;;
32451;SDS011;45528;52.102;5.242;2023-02-20T08:10:56;28.7;;;11.1;;
32451;SDS011;45528;52.102;5.242;2023-02-20T08:12:33;30.7;;;10.9;;
32451;SDS011;45528;52.102;5.242;2023-02-20T08:15:49;29.9;;;11.3;;
32451;SDS011;45528;52.102;5.242;2023-02-20T08:17:25;26.2;;;10.1;;
32451;SDS011;45528;52.102;5.242;2023-02-20T08:19:01;27.3;;;10.6;;
32451;SDS011;45528;52.102;5.242;2023-02-20T08:22:14;28.4;;;11.0;;
32451;SDS011;45528;52.102;5.242;2023-02-20T08:23:51;33.6;;;12.2;;
32451;SDS011;45528;52.102;5.242;2023-02-20T08:25:27;27.9;;;11.5;;
32451;SDS011;45528;52.102;5.242;2023-02-20T08:27:03;22.5;;;10.5;;
32451;SDS011;45528;52.102;5.242;2023-02-20T08:30:17;30.2;;;11.0;;
32451;SDS011;45528;52.102;5.242;2023-02-20T08:31:58;29.8;;;10.4;;
32451;SDS011;45528;52.102;5.242;2023-02-20T08:33:34;20.3;;;10.5;;
32451;SDS011;45528;52.102;5.242;2023-02-20T08:36:47;27.2;;;11.2;;
32451;SDS011;45528;52.102;5.242;2023-02-20T08:38:25;30.6;;;11.7;;
32451;SDS011;45528;52.102;5.242;2023-02-20T08:40:06;27.6;;;11.5;;
32451;SDS011;45528;52.102;5.242;2023-02-20T08:41:45;25.1;;;11.2;;
32451;SDS011;45528;52.102;5.242;2023-02-20T08:44:59;27.7;;;11.2;;
32451;SDS011;45528;52.102;5.242;2023-02-20T08:46:35;29.6;;;11.8;;
32451;SDS011;45528;52.102;5.242;2023-02-20T08:48:11;30.5;;;11.6;;
32451;SDS011;45528;52.102;5.242;2023-02-20T08:51:25;31.1;;;11.9;;
32451;SDS011;45528;52.102;5.242;2023-02-20T08:53:01;27.7;;;12.7;;
32451;SDS011;45528;52.102;5.242;2023-02-20T08:54:37;32.9;;;12.8;;
32451;SDS011;45528;52.102;5.242;2023-02-20T08:57:55;29.0;;;13.5;;
32451;SDS011;45528;52.102;5.242;2023-02-20T08:59:31;34.9;;;14.1;;
32451;SDS011;45528;52.102;5.242;2023-02-20T09:01:07;30.3;;;12.9;;
32451;SDS011;45528;52.102;5.242;2023-02-20T09:02:43;32.5;;;14.4;;
32451;SDS011;45528;52.102;5.242;2023-02-20T09:05:59;31.6;;;14.0;;
32451;SDS011;45528;52.102;5.242;2023-02-20T09:07:35;27.8;;;13.8;;
32451;SDS011;45528;52.102;5.242;2023-02-20T09:09:12;30.5;;;14.3;;
32451;SDS011;45528;52.102;5.242;2023-02-20T09:12:24;30.0;;;15.2;;
32451;SDS011;45528;52.102;5.242;2023-02-20T09:14:00;28.0;;;15.2;;
32451;SDS011;45528;52.102;5.242;2023-02-20T09:15:38;31.9;;;15.6;;
32451;SDS011;45528;52.102;5.242;2023-02-20T09:17:15;34.9;;;16.2;;
32451;SDS011;45528;52.102;5.242;2023-02-20T09:20:31;33.8;;;16.7;;
32451;SDS011;45528;52.102;5.242;2023-02-20T09:22:07;35.21;;;17.11;;
32451;SDS011;45528;52.102;5.242;2023-02-20T09:23:44;35.4;;;17.91;;
32451;SDS011;45528;52.102;5.242;2023-02-20T09:26:57;31.0;;;16.4;;
32451;SDS011;45528;52.102;5.242;2023-02-20T09:28:33;36.6;;;17.11;;
32451;SDS011;45528;52.102;5.242;2023-02-20T09:30:13;31.5;;;15.3;;
32451;SDS011;45528;52.102;5.242;2023-02-20T09:33:28;32.71;;;17.11;;
32451;SDS011;45528;52.102;5.242;2023-02-20T09:35:05;30.2;;;17.11;;
32451;SDS011;45528;52.102;5.242;2023-02-20T09:36:41;28.2;;;16.2;;
32451;SDS011;45528;52.102;5.242;2023-02-20T09:38:17;36.81;;;17.0;;
32451;SDS011;45528;52.102;5.242;2023-02-20T09:41:34;31.4;;;16.61;;
32451;SDS011;45528;52.102;5.242;2023-02-20T09:43:22;29.1;;;16.4;;
32451;SDS011;45528;52.102;5.242;2023-02-20T09:45:17;32.4;;;16.9;;
32451;SDS011;45528;52.102;5.242;2023-02-20T09:46:58;33.9;;;16.2;;
32451;SDS011;45528;52.102;5.242;2023-02-20T09:48:46;27.7;;;15.1;;
32451;SDS011;45528;52.102;5.242;2023-02-20T09:50:44;31.0;;;15.3;;
32451;SDS011;45528;52.102;5.242;2023-02-20T09:54:06;28.2;;;14.5;;
32451;SDS011;45528;52.102;5.242;2023-02-20T09:55:46;27.6;;;14.3;;
32451;SDS011;45528;52.102;5.242;2023-02-20T09:57:25;23.0;;;13.7;;
32451;SDS011;45528;52.102;5.242;2023-02-20T10:00:47;24.2;;;13.7;;
32451;SDS011;45528;52.102;5.242;2023-02-20T10:02:26;23.0;;;12.7;;
32451;SDS011;45528;52.102;5.242;2023-02-20T10:04:06;29.0;;;13.3;;
32451;SDS011;45528;52.102;5.242;2023-02-20T10:05:49;25.5;;;13.2;;
32451;SDS011;45528;52.102;5.242;2023-02-20T10:09:08;23.0;;;12.8;;
32451;SDS011;45528;52.102;5.242;2023-02-20T10:10:48;25.6;;;13.4;;
32451;SDS011;45528;52.102;5.242;2023-02-20T10:12:27;21.0;;;12.0;;
32451;SDS011;45528;52.102;5.242;2023-02-20T10:14:22;26.6;;;13.3;;
32451;SDS011;45528;52.102;5.242;2023-02-20T10:16:12;25.4;;;13.6;;
32451;SDS011;45528;52.102;5.242;2023-02-20T10:18:01;26.7;;;13.2;;
32451;SDS011;45528;52.102;5.242;2023-02-20T10:21:41;20.11;;;12.1;;
32451;SDS011;45528;52.102;5.242;2023-02-20T10:23:30;18.11;;;11.7;;
32451;SDS011;45528;52.102;5.242;2023-02-20T10:25:20;24.5;;;12.3;;
32451;SDS011;45528;52.102;5.242;2023-02-20T10:27:03;17.91;;;11.6;;
32451;SDS011;45528;52.102;5.242;2023-02-20T10:28:58;21.3;;;11.9;;
32451;SDS011;45528;52.102;5.242;2023-02-20T10:30:49;19.7;;;11.4;;
32451;SDS011;45528;52.102;5.242;2023-02-20T10:32:34;21.0;;;11.5;;
32451;SDS011;45528;52.102;5.242;2023-02-20T10:36:06;24.1;;;10.8;;
32451;SDS011;45528;52.102;5.242;2023-02-20T10:37:49;17.91;;;9.5;;
32451;SDS011;45528;52.102;5.242;2023-02-20T10:39:29;19.91;;;10.4;;
32451;SDS011;45528;52.102;5.242;2023-02-20T10:41:12;17.0;;;9.31;;
32451;SDS011;45528;52.102;5.242;2023-02-20T10:44:41;20.2;;;9.71;;
32451;SDS011;45528;52.102;5.242;2023-02-20T10:46:26;19.41;;;9.71;;
32451;SDS011;45528;52.102;5.242;2023-02-20T10:48:08;17.5;;;10.0;;
32451;SDS011;45528;52.102;5.242;2023-02-20T10:49:50;20.2;;;11.0;;
32451;SDS011;45528;52.102;5.242;2023-02-20T10:51:33;17.0;;;10.3;;
32451;SDS011;45528;52.102;5.242;2023-02-20T10:55:02;19.2;;;10.21;;
32451;SDS011;45528;52.102;5.242;2023-02-20T10:56:47;22.2;;;11.4;;
32451;SDS011;45528;52.102;5.242;2023-02-20T10:58:35;21.6;;;11.6;;
32451;SDS011;45528;52.102;5.242;2023-02-20T11:00:16;22.6;;;11.8;;
32451;SDS011;45528;52.102;5.242;2023-02-20T11:01:58;17.5;;;12.1;;
32451;SDS011;45528;52.102;5.242;2023-02-20T11:05:23;19.61;;;11.6;;
32451;SDS011;45528;52.102;5.242;2023-02-20T11:07:06;22.3;;;12.9;;
32451;SDS011;45528;52.102;5.242;2023-02-20T11:08:47;23.3;;;14.9;;
32451;SDS011;45528;52.102;5.242;2023-02-20T11:10:23;24.1;;;12.8;;
32451;SDS011;45528;52.102;5.242;2023-02-20T11:13:37;21.5;;;12.9;;
32451;SDS011;45528;52.102;5.242;2023-02-20T11:15:14;21.9;;;12.4;;
32451;SDS011;45528;52.102;5.242;2023-02-20T11:16:55;19.11;;;13.1;;
32451;SDS011;45528;52.102;5.242;2023-02-20T11:20:44;22.3;;;13.2;;
32451;SDS011;45528;52.102;5.242;2023-02-20T11:22:41;21.2;;;12.7;;
32451;SDS011;45528;52.102;5.242;2023-02-20T11:24:20;17.61;;;11.5;;
32451;SDS011;45528;52.102;5.242;2023-02-20T11:26:21;18.5;;;12.2;;
32451;SDS011;45528;52.102;5.242;2023-02-20T11:28:16;20.5;;;12.5;;
32451;SDS011;45528;52.102;5.242;2023-02-20T11:29:58;20.2;;;12.5;;
32451;SDS011;45528;52.102;5.242;2023-02-20T11:31:38;20.6;;;14.2;;
32451;SDS011;45528;52.102;5.242;2023-02-20T11:33:17;22.8;;;13.6;;
32451;SDS011;45528;52.102;5.242;2023-02-20T11:37:09;21.5;;;13.0;;
32451;SDS011;45528;52.102;5.242;2023-02-20T11:38:49;22.7;;;13.9;;
32451;SDS011;45528;52.102;5.242;2023-02-20T11:40:32;18.41;;;12.6;;
32451;SDS011;45528;52.102;5.242;2023-02-20T11:42:10;18.5;;;13.3;;
32451;SDS011;45528;52.102;5.242;2023-02-20T11:44:04;21.3;;;13.3;;
32451;SDS011;45528;52.102;5.242;2023-02-20T11:46:06;21.4;;;13.1;;
32451;SDS011;45528;52.102;5.242;2023-02-20T11:49:42;20.6;;;13.0;;
32451;SDS011;45528;52.102;5.242;2023-02-20T11:51:29;24.5;;;13.4;;
32451;SDS011;45528;52.102;5.242;2023-02-20T11:53:16;24.2;;;13.4;;
32451;SDS011;45528;52.102;5.242;2023-02-20T11:55:07;23.2;;;13.1;;
32451;SDS011;45528;52.102;5.242;2023-02-20T11:56:53;20.5;;;12.6;;
32451;SDS011;45528;52.102;5.242;2023-02-20T11:58:34;21.0;;;12.8;;
32451;SDS011;45528;52.102;5.242;2023-02-20T12:01:55;20.7;;;13.2;;
32451;SDS011;45528;52.102;5.242;2023-02-20T12:03:52;21.5;;;13.0;;
32451;SDS011;45528;52.102;5.242;2023-02-20T12:05:39;21.6;;;13.0;;
32451;SDS011;45528;52.102;5.242;2023-02-20T12:07:24;20.3;;;12.0;;
32451;SDS011;45528;52.102;5.242;2023-02-20T12:09:05;17.3;;;11.3;;
32451;SDS011;45528;52.102;5.242;2023-02-20T12:12:28;16.4;;;11.4;;
32451;SDS011;45528;52.102;5.242;2023-02-20T12:14:09;17.7;;;12.2;;
32451;SDS011;45528;52.102;5.242;2023-02-20T12:15:50;19.11;;;11.5;;
32451;SDS011;45528;52.102;5.242;2023-02-20T12:17:39;20.9;;;11.6;;
32451;SDS011;45528;52.102;5.242;2023-02-20T12:19:31;16.9;;;11.0;;
32451;SDS011;45528;52.102;5.242;2023-02-20T12:23:10;18.8;;;10.7;;
32451;SDS011;45528;52.102;5.242;2023-02-20T12:25:14;20.5;;;11.2;;
32451;SDS011;45528;52.102;5.242;2023-02-20T12:27:00;21.7;;;11.8;;
32451;SDS011;45528;52.102;5.242;2023-02-20T12:28:40;19.8;;;11.7;;
32451;SDS011;45528;52.102;5.242;2023-02-20T12:30:31;21.3;;;12.8;;
32451;SDS011;45528;52.102;5.242;2023-02-20T12:32:28;24.4;;;12.5;;
32451;SDS011;45528;52.102;5.242;2023-02-20T12:34:17;21.6;;;12.0;;
32451;SDS011;45528;52.102;5.242;2023-02-20T12:36:23;21.9;;;11.5;;
32451;SDS011;45528;52.102;5.242;2023-02-20T12:40:26;20.8;;;12.1;;
32451;SDS011;45528;52.102;5.242;2023-02-20T12:42:19;22.4;;;12.0;;
